sensor_id;sensor_type;location;lat;lon;timestamp;P1;durP1;ratioP1;P2;durP2;ratioP2
3873;SDS011;1952;50.872;6.692;2023-09-18T00:01:15;8.33;;;7.17;;
3873;SDS011;1952;50.872;6.692;2023-09-18T00:03:46;12.40;;;7.07;;
3873;SDS011;1952;50.872;6.692;2023-09-18T00:06:14;9.10;;;8.23;;
3873;SDS011;1952;50.872;6.692;2023-09-18T00:08:44;11.63;;;7.63;;
3873;SDS011;1952;50.872;6.692;2023-09-18T00:11:14;8.73;;;7.57;;
3873;SDS011;1952;50.872;6.692;2023-09-18T00:13:42;8.90;;;8.10;;
3873;SDS011;1952;50.872;6.692;2023-09-18T00:16:10;10.03;;;8.60;;
3873;SDS011;1952;50.872;6.692;2023-09-18T00:18:39;11.40;;;8.57;;
3873;SDS011;1952;50.872;6.692;2023-09-18T00:21:08;10.30;;;9.30;;
3873;SDS011;1952;50.872;6.692;2023-09-18T00:23:36;9.33;;;8.30;;
3873;SDS011;1952;50.872;6.692;2023-09-18T00:26:06;10.00;;;9.03;;
3873;SDS011;1952;50.872;6.692;2023-09-18T00:28:34;11.33;;;9.10;;
3873;SDS011;1952;50.872;6.692;2023-09-18T00:31:02;8.37;;;7.60;;
3873;SDS011;1952;50.872;6.692;2023-09-18T00:33:30;7.80;;;7.10;;
3873;SDS011;1952;50.872;6.692;2023-09-18T00:35:59;8.60;;;7.70;;
3873;SDS011;1952;50.872;6.692;2023-09-18T00:38:26;10.00;;;8.37;;
3873;SDS011;1952;50.872;6.692;2023-09-18T00:40:54;9.10;;;8.27;;
3873;SDS011;1952;50.872;6.692;2023-09-18T00:43:24;8.83;;;7.13;;
3873;SDS011;1952;50.872;6.692;2023-09-18T00:45:52;8.60;;;7.73;;
3873;SDS011;1952;50.872;6.692;2023-09-18T00:48:20;9.73;;;8.60;;
3873;SDS011;1952;50.872;6.692;2023-09-18T00:50:49;10.37;;;8.43;;
3873;SDS011;1952;50.872;6.692;2023-09-18T00:53:18;10.00;;;9.10;;
3873;SDS011;1952;50.872;6.692;2023-09-18T00:55:49;11.37;;;9.70;;
3873;SDS011;1952;50.872;6.692;2023-09-18T00:58:18;10.00;;;9.10;;
3873;SDS011;1952;50.872;6.692;2023-09-18T01:00:48;10.53;;;9.43;;
3873;SDS011;1952;50.872;6.692;2023-09-18T01:03:18;10.13;;;8.87;;
3873;SDS011;1952;50.872;6.692;2023-09-18T01:44:00;10.13;;;9.23;;
3873;SDS011;1952;50.872;6.692;2023-09-18T01:46:32;12.07;;;10.87;;
3873;SDS011;1952;50.872;6.692;2023-09-18T01:49:02;12.47;;;10.80;;
3873;SDS011;1952;50.872;6.692;2023-09-18T01:51:30;12.13;;;10.77;;
3873;SDS011;1952;50.872;6.692;2023-09-18T01:53:58;11.47;;;10.27;;
3873;SDS011;1952;50.872;6.692;2023-09-18T01:56:26;12.27;;;11.23;;
3873;SDS011;1952;50.872;6.692;2023-09-18T01:58:55;12.43;;;11.20;;
3873;SDS011;1952;50.872;6.692;2023-09-18T02:01:25;11.17;;;10.00;;
3873;SDS011;1952;50.872;6.692;2023-09-18T02:03:54;13.17;;;10.73;;
3873;SDS011;1952;50.872;6.692;2023-09-18T02:06:42;13.33;;;11.73;;
3873;SDS011;1952;50.872;6.692;2023-09-18T02:09:10;13.10;;;10.33;;
3873;SDS011;1952;50.872;6.692;2023-09-18T02:11:39;12.03;;;10.83;;
3873;SDS011;1952;50.872;6.692;2023-09-18T02:14:08;11.83;;;10.50;;
3873;SDS011;1952;50.872;6.692;2023-09-18T02:16:38;16.73;;;10.30;;
3873;SDS011;1952;50.872;6.692;2023-09-18T02:19:08;13.10;;;9.80;;
3873;SDS011;1952;50.872;6.692;2023-09-18T02:21:37;12.13;;;10.30;;
3873;SDS011;1952;50.872;6.692;2023-09-18T02:24:05;11.90;;;10.10;;
3873;SDS011;1952;50.872;6.692;2023-09-18T02:26:34;11.60;;;9.03;;
3873;SDS011;1952;50.872;6.692;2023-09-18T02:29:04;13.50;;;8.90;;
3873;SDS011;1952;50.872;6.692;2023-09-18T02:31:31;11.27;;;8.60;;
3873;SDS011;1952;50.872;6.692;2023-09-18T02:34:01;13.63;;;8.87;;
3873;SDS011;1952;50.872;6.692;2023-09-18T02:36:29;12.43;;;8.20;;
3873;SDS011;1952;50.872;6.692;2023-09-18T02:38:57;12.40;;;8.80;;
3873;SDS011;1952;50.872;6.692;2023-09-18T02:41:25;8.37;;;7.10;;
3873;SDS011;1952;50.872;6.692;2023-09-18T02:43:54;10.97;;;8.17;;
3873;SDS011;1952;50.872;6.692;2023-09-18T02:46:22;14.83;;;8.47;;
3873;SDS011;1952;50.872;6.692;2023-09-18T02:48:50;11.00;;;9.20;;
3873;SDS011;1952;50.872;6.692;2023-09-18T02:51:21;8.30;;;7.30;;
3873;SDS011;1952;50.872;6.692;2023-09-18T02:53:50;11.30;;;8.13;;
3873;SDS011;1952;50.872;6.692;2023-09-18T02:56:18;10.73;;;7.80;;
3873;SDS011;1952;50.872;6.692;2023-09-18T02:58:46;11.63;;;9.10;;
3873;SDS011;1952;50.872;6.692;2023-09-18T03:01:14;9.90;;;7.40;;
3873;SDS011;1952;50.872;6.692;2023-09-18T03:03:42;9.63;;;8.03;;
3873;SDS011;1952;50.872;6.692;2023-09-18T03:06:11;11.60;;;7.07;;
3873;SDS011;1952;50.872;6.692;2023-09-18T03:08:41;8.37;;;7.57;;
3873;SDS011;1952;50.872;6.692;2023-09-18T03:11:13;8.90;;;8.10;;
3873;SDS011;1952;50.872;6.692;2023-09-18T03:13:43;7.70;;;6.90;;
3873;SDS011;1952;50.872;6.692;2023-09-18T03:16:13;11.23;;;8.40;;
3873;SDS011;1952;50.872;6.692;2023-09-18T03:18:41;12.53;;;8.33;;
3873;SDS011;1952;50.872;6.692;2023-09-18T03:21:09;8.67;;;7.50;;
3873;SDS011;1952;50.872;6.692;2023-09-18T03:23:37;11.07;;;6.80;;
3873;SDS011;1952;50.872;6.692;2023-09-18T03:26:07;11.67;;;8.10;;
3873;SDS011;1952;50.872;6.692;2023-09-18T03:28:35;10.10;;;6.60;;
3873;SDS011;1952;50.872;6.692;2023-09-18T03:31:03;19.97;;;8.60;;
3873;SDS011;1952;50.872;6.692;2023-09-18T03:33:33;8.83;;;7.33;;
3873;SDS011;1952;50.872;6.692;2023-09-18T03:36:01;12.70;;;8.37;;
3873;SDS011;1952;50.872;6.692;2023-09-18T03:38:31;8.97;;;8.00;;
3873;SDS011;1952;50.872;6.692;2023-09-18T03:41:01;10.07;;;7.80;;
3873;SDS011;1952;50.872;6.692;2023-09-18T03:43:31;12.97;;;7.20;;
3873;SDS011;1952;50.872;6.692;2023-09-18T03:46:03;8.67;;;6.90;;
3873;SDS011;1952;50.872;6.692;2023-09-18T03:48:31;7.23;;;5.50;;
3873;SDS011;1952;50.872;6.692;2023-09-18T03:51:03;8.80;;;5.97;;
3873;SDS011;1952;50.872;6.692;2023-09-18T03:53:32;8.57;;;6.87;;
3873;SDS011;1952;50.872;6.692;2023-09-18T03:56:00;7.83;;;6.70;;
3873;SDS011;1952;50.872;6.692;2023-09-18T03:58:29;6.97;;;6.00;;
3873;SDS011;1952;50.872;6.692;2023-09-18T04:01:03;14.67;;;7.50;;
3873;SDS011;1952;50.872;6.692;2023-09-18T04:03:31;7.63;;;6.80;;
3873;SDS011;1952;50.872;6.692;2023-09-18T04:06:00;7.83;;;5.97;;
3873;SDS011;1952;50.872;6.692;2023-09-18T04:08:29;11.50;;;6.80;;
3873;SDS011;1952;50.872;6.692;2023-09-18T04:10:57;12.50;;;6.57;;
3873;SDS011;1952;50.872;6.692;2023-09-18T04:13:26;11.10;;;6.00;;
3873;SDS011;1952;50.872;6.692;2023-09-18T04:15:55;7.90;;;5.90;;
3873;SDS011;1952;50.872;6.692;2023-09-18T04:18:25;10.67;;;6.00;;
3873;SDS011;1952;50.872;6.692;2023-09-18T04:20:54;9.07;;;6.63;;
3873;SDS011;1952;50.872;6.692;2023-09-18T04:23:23;10.67;;;5.73;;
3873;SDS011;1952;50.872;6.692;2023-09-18T04:25:53;8.30;;;6.50;;
3873;SDS011;1952;50.872;6.692;2023-09-18T04:28:22;8.13;;;6.27;;
3873;SDS011;1952;50.872;6.692;2023-09-18T04:30:50;6.20;;;5.57;;
3873;SDS011;1952;50.872;6.692;2023-09-18T04:33:18;8.67;;;5.90;;
3873;SDS011;1952;50.872;6.692;2023-09-18T04:35:49;6.60;;;6.03;;
3873;SDS011;1952;50.872;6.692;2023-09-18T04:38:17;11.77;;;9.00;;
3873;SDS011;1952;50.872;6.692;2023-09-18T04:40:46;10.43;;;5.80;;
3873;SDS011;1952;50.872;6.692;2023-09-18T04:43:17;8.87;;;6.83;;
3873;SDS011;1952;50.872;6.692;2023-09-18T04:45:49;6.40;;;4.70;;
3873;SDS011;1952;50.872;6.692;2023-09-18T04:48:17;6.70;;;6.00;;
3873;SDS011;1952;50.872;6.692;2023-09-18T04:50:45;9.70;;;4.70;;
3873;SDS011;1952;50.872;6.692;2023-09-18T04:53:15;6.80;;;5.80;;
3873;SDS011;1952;50.872;6.692;2023-09-18T04:55:45;9.97;;;4.77;;
3873;SDS011;1952;50.872;6.692;2023-09-18T04:58:15;5.57;;;4.50;;
3873;SDS011;1952;50.872;6.692;2023-09-18T05:00:44;7.50;;;4.60;;
3873;SDS011;1952;50.872;6.692;2023-09-18T05:03:13;5.80;;;5.30;;
3873;SDS011;1952;50.872;6.692;2023-09-18T05:05:41;5.20;;;4.43;;
3873;SDS011;1952;50.872;6.692;2023-09-18T05:08:10;7.93;;;5.00;;
3873;SDS011;1952;50.872;6.692;2023-09-18T05:10:40;5.53;;;5.07;;
3873;SDS011;1952;50.872;6.692;2023-09-18T05:13:10;5.83;;;4.80;;
3873;SDS011;1952;50.872;6.692;2023-09-18T05:15:39;5.50;;;4.33;;
3873;SDS011;1952;50.872;6.692;2023-09-18T05:18:07;6.00;;;4.00;;
3873;SDS011;1952;50.872;6.692;2023-09-18T05:20:36;5.40;;;4.60;;
3873;SDS011;1952;50.872;6.692;2023-09-18T05:23:04;6.60;;;4.60;;
3873;SDS011;1952;50.872;6.692;2023-09-18T05:25:37;6.10;;;4.20;;
3873;SDS011;1952;50.872;6.692;2023-09-18T05:28:09;4.20;;;3.77;;
3873;SDS011;1952;50.872;6.692;2023-09-18T05:33:38;5.20;;;3.60;;
3873;SDS011;1952;50.872;6.692;2023-09-18T05:36:07;4.77;;;3.70;;
3873;SDS011;1952;50.872;6.692;2023-09-18T05:38:35;5.47;;;3.30;;
3873;SDS011;1952;50.872;6.692;2023-09-18T05:41:04;3.77;;;3.47;;
3873;SDS011;1952;50.872;6.692;2023-09-18T05:43:34;8.20;;;3.77;;
3873;SDS011;1952;50.872;6.692;2023-09-18T05:46:02;5.27;;;3.43;;
3873;SDS011;1952;50.872;6.692;2023-09-18T05:48:34;8.77;;;3.20;;
3873;SDS011;1952;50.872;6.692;2023-09-18T05:51:19;5.10;;;4.30;;
3873;SDS011;1952;50.872;6.692;2023-09-18T05:53:50;4.47;;;3.77;;
3873;SDS011;1952;50.872;6.692;2023-09-18T05:56:35;7.80;;;3.10;;
3873;SDS011;1952;50.872;6.692;2023-09-18T05:59:04;3.77;;;3.20;;
3873;SDS011;1952;50.872;6.692;2023-09-18T06:01:35;3.93;;;2.73;;
3873;SDS011;1952;50.872;6.692;2023-09-18T06:04:05;6.27;;;3.70;;
3873;SDS011;1952;50.872;6.692;2023-09-18T06:06:47;4.33;;;3.13;;
3873;SDS011;1952;50.872;6.692;2023-09-18T06:09:19;4.37;;;2.80;;
3873;SDS011;1952;50.872;6.692;2023-09-18T06:11:48;5.00;;;2.43;;
3873;SDS011;1952;50.872;6.692;2023-09-18T06:14:22;3.80;;;2.87;;
3873;SDS011;1952;50.872;6.692;2023-09-18T06:16:50;4.20;;;2.57;;
3873;SDS011;1952;50.872;6.692;2023-09-18T06:19:19;2.80;;;2.60;;
3873;SDS011;1952;50.872;6.692;2023-09-18T06:21:48;4.00;;;2.77;;
3873;SDS011;1952;50.872;6.692;2023-09-18T06:24:16;5.90;;;2.83;;
3873;SDS011;1952;50.872;6.692;2023-09-18T06:26:45;4.20;;;2.53;;
3873;SDS011;1952;50.872;6.692;2023-09-18T06:29:15;3.97;;;2.97;;
3873;SDS011;1952;50.872;6.692;2023-09-18T06:31:45;2.73;;;2.20;;
3873;SDS011;1952;50.872;6.692;2023-09-18T06:34:14;5.00;;;2.20;;
3873;SDS011;1952;50.872;6.692;2023-09-18T06:36:44;2.67;;;2.47;;
3873;SDS011;1952;50.872;6.692;2023-09-18T06:39:22;2.50;;;2.10;;
3873;SDS011;1952;50.872;6.692;2023-09-18T06:41:57;3.33;;;2.27;;
3873;SDS011;1952;50.872;6.692;2023-09-18T06:44:40;6.40;;;3.07;;
3873;SDS011;1952;50.872;6.692;2023-09-18T06:50:25;3.13;;;2.40;;
3873;SDS011;1952;50.872;6.692;2023-09-18T06:53:05;2.53;;;2.33;;
3873;SDS011;1952;50.872;6.692;2023-09-18T06:55:34;2.60;;;2.40;;
3873;SDS011;1952;50.872;6.692;2023-09-18T06:58:19;4.23;;;2.40;;
3873;SDS011;1952;50.872;6.692;2023-09-18T07:01:27;3.83;;;2.77;;
3873;SDS011;1952;50.872;6.692;2023-09-18T07:04:14;2.80;;;2.30;;
3873;SDS011;1952;50.872;6.692;2023-09-18T07:15:33;2.67;;;2.47;;
3873;SDS011;1952;50.872;6.692;2023-09-18T07:18:29;2.70;;;2.50;;
3873;SDS011;1952;50.872;6.692;2023-09-18T07:21:28;3.33;;;2.10;;
3873;SDS011;1952;50.872;6.692;2023-09-18T07:24:00;4.43;;;2.90;;
3873;SDS011;1952;50.872;6.692;2023-09-18T07:27:10;3.57;;;2.80;;
3873;SDS011;1952;50.872;6.692;2023-09-18T07:49:10;2.93;;;2.60;;
3873;SDS011;1952;50.872;6.692;2023-09-18T07:51:58;3.20;;;2.90;;
3873;SDS011;1952;50.872;6.692;2023-09-18T07:54:45;3.80;;;2.37;;
3873;SDS011;1952;50.872;6.692;2023-09-18T07:57:37;2.17;;;1.97;;
3873;SDS011;1952;50.872;6.692;2023-09-18T08:00:38;7.13;;;2.57;;
3873;SDS011;1952;50.872;6.692;2023-09-18T08:03:40;2.60;;;2.40;;
3873;SDS011;1952;50.872;6.692;2023-09-18T08:30:51;2.33;;;1.90;;
3873;SDS011;1952;50.872;6.692;2023-09-18T08:33:37;2.60;;;2.27;;
3873;SDS011;1952;50.872;6.692;2023-09-18T08:38:58;3.00;;;2.30;;
3873;SDS011;1952;50.872;6.692;2023-09-18T08:41:36;2.60;;;2.40;;
3873;SDS011;1952;50.872;6.692;2023-09-18T08:46:43;3.70;;;1.97;;
3873;SDS011;1952;50.872;6.692;2023-09-18T08:49:44;2.50;;;2.30;;
3873;SDS011;1952;50.872;6.692;2023-09-18T08:53:01;2.40;;;2.20;;
3873;SDS011;1952;50.872;6.692;2023-09-18T08:55:58;2.90;;;2.63;;
3873;SDS011;1952;50.872;6.692;2023-09-18T08:58:44;3.37;;;2.50;;
3873;SDS011;1952;50.872;6.692;2023-09-18T09:01:18;2.90;;;2.37;;
3873;SDS011;1952;50.872;6.692;2023-09-18T09:19:10;4.20;;;2.30;;
3873;SDS011;1952;50.872;6.692;2023-09-18T09:28:00;3.30;;;2.20;;
3873;SDS011;1952;50.872;6.692;2023-09-18T09:30:33;3.90;;;2.50;;
3873;SDS011;1952;50.872;6.692;2023-09-18T09:33:05;3.03;;;2.07;;
3873;SDS011;1952;50.872;6.692;2023-09-18T10:15:41;3.93;;;1.87;;
3873;SDS011;1952;50.872;6.692;2023-09-18T10:18:49;4.10;;;2.00;;
3873;SDS011;1952;50.872;6.692;2023-09-18T10:22:11;1.97;;;1.77;;
3873;SDS011;1952;50.872;6.692;2023-09-18T10:25:07;4.83;;;2.13;;
3873;SDS011;1952;50.872;6.692;2023-09-18T10:52:02;2.50;;;1.70;;
3873;SDS011;1952;50.872;6.692;2023-09-18T10:57:55;2.13;;;1.93;;
3873;SDS011;1952;50.872;6.692;2023-09-18T11:01:11;2.50;;;1.90;;
3873;SDS011;1952;50.872;6.692;2023-09-18T11:03:59;1.93;;;1.73;;
3873;SDS011;1952;50.872;6.692;2023-09-18T11:14:14;2.40;;;2.20;;
3873;SDS011;1952;50.872;6.692;2023-09-18T11:20:35;2.63;;;1.93;;
3873;SDS011;1952;50.872;6.692;2023-09-18T11:23:33;3.23;;;2.07;;
3873;SDS011;1952;50.872;6.692;2023-09-18T11:26:32;2.57;;;1.93;;
3873;SDS011;1952;50.872;6.692;2023-09-18T11:32:39;4.80;;;2.20;;
3873;SDS011;1952;50.872;6.692;2023-09-18T11:35:14;6.23;;;2.47;;
3873;SDS011;1952;50.872;6.692;2023-09-18T11:38:18;2.90;;;2.20;;
3873;SDS011;1952;50.872;6.692;2023-09-18T11:41:25;2.53;;;2.00;;
3873;SDS011;1952;50.872;6.692;2023-09-18T11:47:12;2.63;;;2.27;;
3873;SDS011;1952;50.872;6.692;2023-09-18T11:50:25;2.90;;;2.07;;
3873;SDS011;1952;50.872;6.692;2023-09-18T11:53:06;2.10;;;1.90;;
3873;SDS011;1952;50.872;6.692;2023-09-18T11:55:45;3.10;;;2.10;;
3873;SDS011;1952;50.872;6.692;2023-09-18T11:58:30;2.20;;;2.00;;
3873;SDS011;1952;50.872;6.692;2023-09-18T12:01:26;2.60;;;2.37;;
3873;SDS011;1952;50.872;6.692;2023-09-18T12:04:30;2.23;;;1.67;;
3873;SDS011;1952;50.872;6.692;2023-09-18T12:07:04;2.63;;;2.43;;
3873;SDS011;1952;50.872;6.692;2023-09-18T12:09:40;4.63;;;2.10;;
3873;SDS011;1952;50.872;6.692;2023-09-18T12:12:29;4.33;;;2.50;;
3873;SDS011;1952;50.872;6.692;2023-09-18T12:15:04;1.93;;;1.83;;
3873;SDS011;1952;50.872;6.692;2023-09-18T12:17:36;3.70;;;2.40;;
3873;SDS011;1952;50.872;6.692;2023-09-18T12:20:36;4.70;;;2.10;;
3873;SDS011;1952;50.872;6.692;2023-09-18T12:23:10;2.20;;;2.00;;
3873;SDS011;1952;50.872;6.692;2023-09-18T12:25:47;2.43;;;2.10;;
3873;SDS011;1952;50.872;6.692;2023-09-18T12:28:22;2.93;;;2.00;;
3873;SDS011;1952;50.872;6.692;2023-09-18T12:30:56;3.00;;;2.47;;
3873;SDS011;1952;50.872;6.692;2023-09-18T12:33:28;2.80;;;2.00;;
3873;SDS011;1952;50.872;6.692;2023-09-18T12:36:11;3.23;;;2.27;;
3873;SDS011;1952;50.872;6.692;2023-09-18T12:38:55;3.87;;;1.90;;
3873;SDS011;1952;50.872;6.692;2023-09-18T12:41:31;4.23;;;1.97;;
3873;SDS011;1952;50.872;6.692;2023-09-18T12:44:03;2.43;;;1.90;;
3873;SDS011;1952;50.872;6.692;2023-09-18T12:46:37;3.53;;;2.20;;
3873;SDS011;1952;50.872;6.692;2023-09-18T12:49:29;3.73;;;2.37;;
3873;SDS011;1952;50.872;6.692;2023-09-18T12:52:21;2.60;;;2.00;;
3873;SDS011;1952;50.872;6.692;2023-09-18T12:54:51;2.03;;;1.90;;
3873;SDS011;1952;50.872;6.692;2023-09-18T12:57:25;2.20;;;2.00;;
3873;SDS011;1952;50.872;6.692;2023-09-18T13:00:08;2.57;;;2.37;;
3873;SDS011;1952;50.872;6.692;2023-09-18T13:03:05;2.20;;;2.00;;
3873;SDS011;1952;50.872;6.692;2023-09-18T13:05:34;2.73;;;2.27;;
3873;SDS011;1952;50.872;6.692;2023-09-18T13:46:42;2.60;;;2.40;;
3873;SDS011;1952;50.872;6.692;2023-09-18T13:49:20;2.57;;;2.37;;
3873;SDS011;1952;50.872;6.692;2023-09-18T13:52:06;2.83;;;2.53;;
3873;SDS011;1952;50.872;6.692;2023-09-18T13:54:39;2.60;;;2.40;;
3873;SDS011;1952;50.872;6.692;2023-09-18T13:57:21;4.03;;;2.10;;
3873;SDS011;1952;50.872;6.692;2023-09-18T14:00:17;2.53;;;2.33;;
3873;SDS011;1952;50.872;6.692;2023-09-18T14:05:58;3.20;;;2.70;;
3873;SDS011;1952;50.872;6.692;2023-09-18T14:08:33;2.83;;;2.10;;
3873;SDS011;1952;50.872;6.692;2023-09-18T14:11:05;2.67;;;2.30;;
3873;SDS011;1952;50.872;6.692;2023-09-18T14:13:52;2.53;;;2.30;;
3873;SDS011;1952;50.872;6.692;2023-09-18T14:16:36;3.23;;;2.40;;
3873;SDS011;1952;50.872;6.692;2023-09-18T14:19:25;3.30;;;2.00;;
3873;SDS011;1952;50.872;6.692;2023-09-18T14:22:25;5.73;;;2.73;;
3873;SDS011;1952;50.872;6.692;2023-09-18T14:24:59;4.33;;;2.07;;
3873;SDS011;1952;50.872;6.692;2023-09-18T14:27:43;4.40;;;2.23;;
3873;SDS011;1952;50.872;6.692;2023-09-18T14:30:22;2.90;;;2.33;;
3873;SDS011;1952;50.872;6.692;2023-09-18T14:32:56;2.20;;;2.00;;
3873;SDS011;1952;50.872;6.692;2023-09-18T14:35:38;3.60;;;2.37;;
3873;SDS011;1952;50.872;6.692;2023-09-18T14:44:25;2.67;;;2.20;;
3873;SDS011;1952;50.872;6.692;2023-09-18T14:47:23;3.77;;;2.40;;
3873;SDS011;1952;50.872;6.692;2023-09-18T14:50:06;3.17;;;2.17;;
3873;SDS011;1952;50.872;6.692;2023-09-18T14:53:13;5.10;;;3.20;;
3873;SDS011;1952;50.872;6.692;2023-09-18T14:56:16;3.30;;;2.17;;
3873;SDS011;1952;50.872;6.692;2023-09-18T14:59:30;3.80;;;2.30;;
3873;SDS011;1952;50.872;6.692;2023-09-18T15:05:22;3.00;;;2.27;;
3873;SDS011;1952;50.872;6.692;2023-09-18T15:07:55;3.90;;;2.50;;
3873;SDS011;1952;50.872;6.692;2023-09-18T15:19:49;3.77;;;2.50;;
3873;SDS011;1952;50.872;6.692;2023-09-18T15:22:23;5.70;;;2.70;;
3873;SDS011;1952;50.872;6.692;2023-09-18T15:25:39;3.83;;;2.70;;
3873;SDS011;1952;50.872;6.692;2023-09-18T15:28:17;9.40;;;3.03;;
3873;SDS011;1952;50.872;6.692;2023-09-18T15:33:22;4.93;;;3.13;;
3873;SDS011;1952;50.872;6.692;2023-09-18T15:36:10;3.33;;;2.63;;
3873;SDS011;1952;50.872;6.692;2023-09-18T15:38:57;4.77;;;2.73;;
3873;SDS011;1952;50.872;6.692;2023-09-18T15:41:43;2.67;;;2.47;;
3873;SDS011;1952;50.872;6.692;2023-09-18T15:44:21;3.00;;;2.70;;
3873;SDS011;1952;50.872;6.692;2023-09-18T16:04:37;2.50;;;2.30;;
3873;SDS011;1952;50.872;6.692;2023-09-18T16:07:22;2.87;;;2.40;;
3873;SDS011;1952;50.872;6.692;2023-09-18T16:10:06;2.53;;;2.30;;
3873;SDS011;1952;50.872;6.692;2023-09-18T16:12:35;8.03;;;2.80;;
3873;SDS011;1952;50.872;6.692;2023-09-18T16:15:07;2.83;;;2.63;;
3873;SDS011;1952;50.872;6.692;2023-09-18T16:17:53;3.77;;;2.53;;
3873;SDS011;1952;50.872;6.692;2023-09-18T16:20:31;2.50;;;2.30;;
3873;SDS011;1952;50.872;6.692;2023-09-18T16:23:25;3.10;;;2.60;;
3873;SDS011;1952;50.872;6.692;2023-09-18T16:26:03;3.13;;;2.80;;
3873;SDS011;1952;50.872;6.692;2023-09-18T16:28:35;3.87;;;2.67;;
3873;SDS011;1952;50.872;6.692;2023-09-18T16:31:15;2.53;;;2.33;;
3873;SDS011;1952;50.872;6.692;2023-09-18T16:33:46;3.07;;;2.40;;
3873;SDS011;1952;50.872;6.692;2023-09-18T16:36:23;3.00;;;2.50;;
3873;SDS011;1952;50.872;6.692;2023-09-18T16:39:06;3.50;;;2.83;;
3873;SDS011;1952;50.872;6.692;2023-09-18T16:41:40;3.40;;;2.37;;
3873;SDS011;1952;50.872;6.692;2023-09-18T16:44:26;3.20;;;2.53;;
3873;SDS011;1952;50.872;6.692;2023-09-18T16:47:09;5.07;;;2.73;;
3873;SDS011;1952;50.872;6.692;2023-09-18T16:49:37;3.90;;;2.80;;
3873;SDS011;1952;50.872;6.692;2023-09-18T16:52:12;5.93;;;3.17;;
3873;SDS011;1952;50.872;6.692;2023-09-18T16:54:44;4.00;;;2.70;;
3873;SDS011;1952;50.872;6.692;2023-09-18T16:57:16;3.30;;;2.70;;
3873;SDS011;1952;50.872;6.692;2023-09-18T16:59:47;3.20;;;2.37;;
3873;SDS011;1952;50.872;6.692;2023-09-18T17:02:15;3.13;;;2.63;;
3873;SDS011;1952;50.872;6.692;2023-09-18T17:04:47;5.80;;;2.80;;
3873;SDS011;1952;50.872;6.692;2023-09-18T17:07:18;3.60;;;2.60;;
3873;SDS011;1952;50.872;6.692;2023-09-18T17:09:47;3.70;;;2.53;;
3873;SDS011;1952;50.872;6.692;2023-09-18T17:12:16;2.97;;;2.73;;
3873;SDS011;1952;50.872;6.692;2023-09-18T17:14:44;3.73;;;3.30;;
3873;SDS011;1952;50.872;6.692;2023-09-18T17:17:13;3.23;;;2.90;;
3873;SDS011;1952;50.872;6.692;2023-09-18T17:19:42;4.87;;;3.80;;
3873;SDS011;1952;50.872;6.692;2023-09-18T17:22:10;3.53;;;3.07;;
3873;SDS011;1952;50.872;6.692;2023-09-18T17:24:52;4.90;;;3.50;;
3873;SDS011;1952;50.872;6.692;2023-09-18T17:27:34;4.07;;;2.83;;
3873;SDS011;1952;50.872;6.692;2023-09-18T17:30:07;3.97;;;3.10;;
3873;SDS011;1952;50.872;6.692;2023-09-18T17:32:50;3.30;;;2.50;;
3873;SDS011;1952;50.872;6.692;2023-09-18T17:35:18;3.70;;;3.17;;
3873;SDS011;1952;50.872;6.692;2023-09-18T17:38:05;3.87;;;3.57;;
3873;SDS011;1952;50.872;6.692;2023-09-18T17:40:49;3.67;;;3.27;;
3873;SDS011;1952;50.872;6.692;2023-09-18T17:43:22;7.57;;;3.30;;
3873;SDS011;1952;50.872;6.692;2023-09-18T17:45:59;3.30;;;3.00;;
3873;SDS011;1952;50.872;6.692;2023-09-18T17:48:27;3.23;;;2.97;;
3873;SDS011;1952;50.872;6.692;2023-09-18T17:50:56;2.90;;;2.70;;
3873;SDS011;1952;50.872;6.692;2023-09-18T17:53:24;3.53;;;3.23;;
3873;SDS011;1952;50.872;6.692;2023-09-18T17:58:53;2.13;;;1.60;;
3873;SDS011;1952;50.872;6.692;2023-09-18T18:01:23;2.40;;;2.00;;
3873;SDS011;1952;50.872;6.692;2023-09-18T18:03:52;3.53;;;2.10;;
3873;SDS011;1952;50.872;6.692;2023-09-18T18:06:25;2.63;;;2.17;;
3873;SDS011;1952;50.872;6.692;2023-09-18T18:08:53;4.60;;;3.23;;
3873;SDS011;1952;50.872;6.692;2023-09-18T18:11:24;3.27;;;2.70;;
3873;SDS011;1952;50.872;6.692;2023-09-18T18:13:54;3.03;;;2.57;;
3873;SDS011;1952;50.872;6.692;2023-09-18T18:16:37;3.20;;;2.00;;
3873;SDS011;1952;50.872;6.692;2023-09-18T18:19:06;3.50;;;2.47;;
3873;SDS011;1952;50.872;6.692;2023-09-18T18:21:37;4.23;;;2.23;;
3873;SDS011;1952;50.872;6.692;2023-09-18T18:24:06;2.90;;;2.70;;
3873;SDS011;1952;50.872;6.692;2023-09-18T18:26:35;4.87;;;2.60;;
3873;SDS011;1952;50.872;6.692;2023-09-18T18:29:07;1.97;;;1.73;;
3873;SDS011;1952;50.872;6.692;2023-09-18T18:31:42;4.30;;;2.10;;
3873;SDS011;1952;50.872;6.692;2023-09-18T18:34:17;5.20;;;2.63;;
3873;SDS011;1952;50.872;6.692;2023-09-18T18:37:14;2.53;;;1.90;;
3873;SDS011;1952;50.872;6.692;2023-09-18T18:40:01;6.03;;;2.80;;
3873;SDS011;1952;50.872;6.692;2023-09-18T18:42:34;3.07;;;2.13;;
3873;SDS011;1952;50.872;6.692;2023-09-18T18:45:15;4.20;;;3.00;;
3873;SDS011;1952;50.872;6.692;2023-09-18T18:48:11;2.33;;;2.13;;
3873;SDS011;1952;50.872;6.692;2023-09-18T18:50:42;2.33;;;2.13;;
3873;SDS011;1952;50.872;6.692;2023-09-18T18:53:18;5.10;;;2.50;;
3873;SDS011;1952;50.872;6.692;2023-09-18T18:55:56;3.53;;;2.60;;
3873;SDS011;1952;50.872;6.692;2023-09-18T18:58:25;3.63;;;2.57;;
3873;SDS011;1952;50.872;6.692;2023-09-18T19:03:53;3.37;;;2.43;;
3873;SDS011;1952;50.872;6.692;2023-09-18T19:06:39;5.67;;;2.17;;
3873;SDS011;1952;50.872;6.692;2023-09-18T19:09:08;2.37;;;2.17;;
3873;SDS011;1952;50.872;6.692;2023-09-18T19:11:40;2.83;;;2.13;;
3873;SDS011;1952;50.872;6.692;2023-09-18T19:14:17;2.50;;;2.30;;
3873;SDS011;1952;50.872;6.692;2023-09-18T19:17:01;3.27;;;2.10;;
3873;SDS011;1952;50.872;6.692;2023-09-18T19:19:47;2.83;;;2.63;;
3873;SDS011;1952;50.872;6.692;2023-09-18T19:22:15;3.40;;;2.67;;
3873;SDS011;1952;50.872;6.692;2023-09-18T19:25:00;2.10;;;1.90;;
3873;SDS011;1952;50.872;6.692;2023-09-18T19:27:45;2.57;;;2.13;;
3873;SDS011;1952;50.872;6.692;2023-09-18T19:30:41;2.20;;;2.00;;
3873;SDS011;1952;50.872;6.692;2023-09-18T19:33:12;2.20;;;2.10;;
3873;SDS011;1952;50.872;6.692;2023-09-18T19:41:32;3.47;;;2.37;;
3873;SDS011;1952;50.872;6.692;2023-09-18T19:44:04;4.30;;;2.17;;
3873;SDS011;1952;50.872;6.692;2023-09-18T19:46:49;3.13;;;2.40;;
3873;SDS011;1952;50.872;6.692;2023-09-18T19:49:19;5.83;;;2.90;;
3873;SDS011;1952;50.872;6.692;2023-09-18T19:52:07;3.57;;;2.30;;
3873;SDS011;1952;50.872;6.692;2023-09-18T19:54:57;3.83;;;2.23;;
3873;SDS011;1952;50.872;6.692;2023-09-18T19:57:35;4.37;;;2.43;;
3873;SDS011;1952;50.872;6.692;2023-09-18T20:00:18;3.10;;;2.80;;
3873;SDS011;1952;50.872;6.692;2023-09-18T20:03:06;2.57;;;2.37;;
3873;SDS011;1952;50.872;6.692;2023-09-18T20:08:10;5.00;;;2.53;;
3873;SDS011;1952;50.872;6.692;2023-09-18T20:10:41;2.63;;;2.43;;
3873;SDS011;1952;50.872;6.692;2023-09-18T20:13:14;3.33;;;1.83;;
3873;SDS011;1952;50.872;6.692;2023-09-18T20:15:56;2.67;;;2.47;;
3873;SDS011;1952;50.872;6.692;2023-09-18T20:18:27;4.43;;;2.63;;
3873;SDS011;1952;50.872;6.692;2023-09-18T20:21:00;3.00;;;2.70;;
3873;SDS011;1952;50.872;6.692;2023-09-18T20:23:35;3.67;;;2.30;;
3873;SDS011;1952;50.872;6.692;2023-09-18T20:26:21;2.50;;;2.30;;
3873;SDS011;1952;50.872;6.692;2023-09-18T20:36:48;2.60;;;2.40;;
3873;SDS011;1952;50.872;6.692;2023-09-18T20:39:18;3.13;;;2.83;;
3873;SDS011;1952;50.872;6.692;2023-09-18T20:41:53;5.10;;;2.47;;
3873;SDS011;1952;50.872;6.692;2023-09-18T20:52:41;6.80;;;3.37;;
3873;SDS011;1952;50.872;6.692;2023-09-18T20:58:11;2.47;;;2.27;;
3873;SDS011;1952;50.872;6.692;2023-09-18T21:00:39;2.87;;;2.67;;
3873;SDS011;1952;50.872;6.692;2023-09-18T21:03:08;2.50;;;2.30;;
3873;SDS011;1952;50.872;6.692;2023-09-18T21:05:36;2.97;;;2.77;;
3873;SDS011;1952;50.872;6.692;2023-09-18T21:08:07;2.83;;;2.63;;
3873;SDS011;1952;50.872;6.692;2023-09-18T21:10:35;3.90;;;3.40;;
3873;SDS011;1952;50.872;6.692;2023-09-18T21:13:04;3.10;;;2.80;;
3873;SDS011;1952;50.872;6.692;2023-09-18T21:15:34;3.17;;;2.97;;
3873;SDS011;1952;50.872;6.692;2023-09-18T21:18:30;2.97;;;2.57;;
3873;SDS011;1952;50.872;6.692;2023-09-18T21:21:00;2.77;;;2.57;;
3873;SDS011;1952;50.872;6.692;2023-09-18T21:23:43;2.53;;;2.33;;
3873;SDS011;1952;50.872;6.692;2023-09-18T21:26:25;2.40;;;2.20;;
3873;SDS011;1952;50.872;6.692;2023-09-18T21:28:54;3.23;;;2.93;;
3873;SDS011;1952;50.872;6.692;2023-09-18T21:31:22;3.27;;;2.97;;